sensor_id;sensor_type;location;lat;lon;timestamp;pressure;altitude;pressure_sealevel;temperature;humidity
30897;BME280;64229;52.246;21.054;2023-07-28T15:40:12;99498.06;;;19.90;99.07
30897;BME280;64229;52.246;21.054;2023-07-28T15:42:37;99491.38;;;20.00;99.29
30897;BME280;64229;52.246;21.054;2023-07-28T15:45:03;99465.56;;;19.90;100.00
30897;BME280;64229;52.246;21.054;2023-07-28T15:47:28;99455.59;;;19.78;100.00
30897;BME280;64229;52.246;21.054;2023-07-28T15:49:58;99454.25;;;19.72;100.00
30897;BME280;64229;52.246;21.054;2023-07-28T15:52:24;99457.94;;;19.80;100.00
30897;BME280;64229;52.246;21.054;2023-07-28T15:54:49;99471.91;;;19.82;100.00
30897;BME280;64229;52.246;21.054;2023-07-28T15:57:14;99481.69;;;19.86;100.00
30897;BME280;64229;52.246;21.054;2023-07-28T15:59:40;99481.69;;;19.86;100.00
30897;BME280;64229;52.246;21.054;2023-07-28T16:02:06;99479.75;;;19.71;100.00
30897;BME280;64229;52.246;21.054;2023-07-28T16:04:31;99481.03;;;19.61;100.00
30897;BME280;64229;52.246;21.054;2023-07-28T16:06:57;99486.09;;;19.63;100.00
30897;BME280;64229;52.246;21.054;2023-07-28T16:09:22;99479.81;;;19.59;100.00
30897;BME280;64229;52.246;21.054;2023-07-28T16:11:47;99490.03;;;19.53;99.69
30897;BME280;64229;52.246;21.054;2023-07-28T16:14:12;99475.97;;;19.48;98.94
30897;BME280;64229;52.246;21.054;2023-07-28T16:16:38;99478.13;;;19.42;97.11
30897;BME280;64229;52.246;21.054;2023-07-28T16:19:04;99470.75;;;19.27;97.02
30897;BME280;64229;52.246;21.054;2023-07-28T16:21:31;99474.84;;;19.08;97.56
30897;BME280;64229;52.246;21.054;2023-07-28T16:23:57;99483.63;;;18.81;99.32
30897;BME280;64229;52.246;21.054;2023-07-28T16:26:22;99485.44;;;18.77;99.93
30897;BME280;64229;52.246;21.054;2023-07-28T16:28:47;99480.72;;;18.74;100.00
30897;BME280;64229;52.246;21.054;2023-07-28T16:31:13;99495.91;;;18.78;100.00
30897;BME280;64229;52.246;21.054;2023-07-28T16:33:38;99490.19;;;19.04;99.53
30897;BME280;64229;52.246;21.054;2023-07-28T16:36:03;99484.91;;;18.84;100.00
30897;BME280;64229;52.246;21.054;2023-07-28T16:38:29;99487.25;;;18.73;100.00
30897;BME280;64229;52.246;21.054;2023-07-28T16:40:54;99495.72;;;18.84;100.00
30897;BME280;64229;52.246;21.054;2023-07-28T16:43:19;99490.41;;;18.87;100.00
30897;BME280;64229;52.246;21.054;2023-07-28T16:45:45;99490.28;;;18.96;99.92
30897;BME280;64229;52.246;21.054;2023-07-28T16:48:10;99497.28;;;18.97;100.00
30897;BME280;64229;52.246;21.054;2023-07-28T16:50:36;99498.84;;;18.98;100.00
30897;BME280;64229;52.246;21.054;2023-07-28T16:53:01;99496.59;;;18.88;100.00
30897;BME280;64229;52.246;21.054;2023-07-28T16:55:26;99492.88;;;19.04;100.00
30897;BME280;64229;52.246;21.054;2023-07-28T16:57:52;99505.25;;;19.18;99.21
30897;BME280;64229;52.246;21.054;2023-07-28T17:00:17;99505.47;;;19.25;97.56
30897;BME280;64229;52.246;21.054;2023-07-28T17:02:42;99504.81;;;19.16;99.27
30897;BME280;64229;52.246;21.054;2023-07-28T17:05:08;99506.72;;;19.03;100.00
30897;BME280;64229;52.246;21.054;2023-07-28T17:07:33;99508.16;;;19.13;99.31
30897;BME280;64229;52.246;21.054;2023-07-28T17:09:59;99507.63;;;19.07;100.00
30897;BME280;64229;52.246;21.054;2023-07-28T17:12:24;99508.84;;;19.10;100.00
30897;BME280;64229;52.246;21.054;2023-07-28T17:14:49;99500.06;;;19.00;100.00
30897;BME280;64229;52.246;21.054;2023-07-28T17:17:14;99505.72;;;19.07;100.00
30897;BME280;64229;52.246;21.054;2023-07-28T17:19:40;99491.75;;;18.93;100.00
30897;BME280;64229;52.246;21.054;2023-07-28T17:22:05;99511.91;;;19.08;100.00
30897;BME280;64229;52.246;21.054;2023-07-28T17:24:31;99515.97;;;19.02;100.00
30897;BME280;64229;52.246;21.054;2023-07-28T17:26:58;99505.59;;;18.92;100.00
30897;BME280;64229;52.246;21.054;2023-07-28T17:29:23;99508.50;;;19.23;100.00
30897;BME280;64229;52.246;21.054;2023-07-28T17:31:49;99516.41;;;19.16;100.00
30897;BME280;64229;52.246;21.054;2023-07-28T17:34:14;99510.69;;;19.05;100.00
30897;BME280;64229;52.246;21.054;2023-07-28T17:36:39;99514.03;;;19.02;100.00
30897;BME280;64229;52.246;21.054;2023-07-28T17:39:04;99510.44;;;18.98;100.00
30897;BME280;64229;52.246;21.054;2023-07-28T17:41:30;99519.44;;;19.02;100.00
30897;BME280;64229;52.246;21.054;2023-07-28T17:43:55;99516.66;;;18.99;100.00
30897;BME280;64229;52.246;21.054;2023-07-28T17:46:20;99522.59;;;18.92;100.00
30897;BME280;64229;52.246;21.054;2023-07-28T17:48:46;99517.78;;;18.86;100.00
30897;BME280;64229;52.246;21.054;2023-07-28T17:51:11;99529.94;;;18.79;100.00
30897;BME280;64229;52.246;21.054;2023-07-28T17:53:36;99524.84;;;19.02;100.00
30897;BME280;64229;52.246;21.054;2023-07-28T17:56:01;99521.03;;;18.91;100.00
30897;BME280;64229;52.246;21.054;2023-07-28T17:58:27;99526.44;;;18.79;100.00
30897;BME280;64229;52.246;21.054;2023-07-28T18:00:52;99530.63;;;18.76;100.00
30897;BME280;64229;52.246;21.054;2023-07-28T18:03:17;99526.44;;;18.79;100.00
30897;BME280;64229;52.246;21.054;2023-07-28T18:05:43;99530.63;;;18.76;100.00
30897;BME280;64229;52.246;21.054;2023-07-28T18:08:08;99540.88;;;18.83;100.00
30897;BME280;64229;52.246;21.054;2023-07-28T18:10:40;99535.69;;;18.78;100.00
30897;BME280;64229;52.246;21.054;2023-07-28T18:13:07;99527.47;;;18.74;100.00
30897;BME280;64229;52.246;21.054;2023-07-28T18:15:32;99530.81;;;18.71;100.00
30897;BME280;64229;52.246;21.054;2023-07-28T18:17:59;99540.59;;;18.64;100.00
30897;BME280;64229;52.246;21.054;2023-07-28T18:20:24;99541.44;;;18.64;100.00
30897;BME280;64229;52.246;21.054;2023-07-28T18:22:50;99546.00;;;18.64;100.00
30897;BME280;64229;52.246;21.054;2023-07-28T18:25:15;99545.56;;;18.62;100.00
30897;BME280;64229;52.246;21.054;2023-07-28T18:27:40;99554.13;;;18.64;100.00
30897;BME280;64229;52.246;21.054;2023-07-28T18:30:07;99545.88;;;18.60;100.00
30897;BME280;64229;52.246;21.054;2023-07-28T18:32:33;99554.94;;;18.64;100.00
30897;BME280;64229;52.246;21.054;2023-07-28T18:34:58;99569.25;;;18.65;100.00
30897;BME280;64229;52.246;21.054;2023-07-28T18:37:24;99556.03;;;18.63;100.00
30897;BME280;64229;52.246;21.054;2023-07-28T18:39:49;99558.66;;;18.72;100.00
30897;BME280;64229;52.246;21.054;2023-07-28T18:42:14;99556.75;;;18.72;100.00
30897;BME280;64229;52.246;21.054;2023-07-28T18:44:40;99560.91;;;18.70;100.00
30897;BME280;64229;52.246;21.054;2023-07-28T18:47:05;99575.00;;;18.88;100.00
30897;BME280;64229;52.246;21.054;2023-07-28T18:49:30;99571.75;;;18.82;100.00
30897;BME280;64229;52.246;21.054;2023-07-28T18:51:56;99579.88;;;18.82;100.00
30897;BME280;64229;52.246;21.054;2023-07-28T18:54:21;99574.31;;;18.78;100.00
30897;BME280;64229;52.246;21.054;2023-07-28T18:56:47;99585.38;;;18.73;100.00
30897;BME280;64229;52.246;21.054;2023-07-28T18:59:13;99586.81;;;18.71;100.00
30897;BME280;64229;52.246;21.054;2023-07-28T19:01:38;99573.88;;;18.76;100.00
30897;BME280;64229;52.246;21.054;2023-07-28T19:04:03;99573.53;;;18.78;100.00
30897;BME280;64229;52.246;21.054;2023-07-28T19:06:29;99586.41;;;18.93;100.00
30897;BME280;64229;52.246;21.054;2023-07-28T19:08:54;99588.19;;;18.89;100.00
30897;BME280;64229;52.246;21.054;2023-07-28T19:11:20;99594.28;;;18.86;100.00
30897;BME280;64229;52.246;21.054;2023-07-28T19:13:45;99588.75;;;18.83;100.00
30897;BME280;64229;52.246;21.054;2023-07-28T19:16:12;99594.59;;;18.72;100.00
30897;BME280;64229;52.246;21.054;2023-07-28T19:18:37;99586.56;;;18.64;100.00
30897;BME280;64229;52.246;21.054;2023-07-28T19:21:02;99588.31;;;18.60;100.00
30897;BME280;64229;52.246;21.054;2023-07-28T19:23:28;99591.97;;;18.64;100.00
30897;BME280;64229;52.246;21.054;2023-07-28T19:25:54;99589.00;;;18.57;100.00
30897;BME280;64229;52.246;21.054;2023-07-28T19:28:19;99598.34;;;18.59;100.00
30897;BME280;64229;52.246;21.054;2023-07-28T19:30:46;99601.28;;;18.54;100.00
30897;BME280;64229;52.246;21.054;2023-07-28T19:33:11;99601.97;;;18.51;100.00
30897;BME280;64229;52.246;21.054;2023-07-28T19:35:36;99602.25;;;18.49;100.00
30897;BME280;64229;52.246;21.054;2023-07-28T19:38:01;99605.75;;;18.50;100.00
30897;BME280;64229;52.246;21.054;2023-07-28T19:40:27;99606.88;;;18.49;100.00
30897;BME280;64229;52.246;21.054;2023-07-28T19:42:52;99609.03;;;18.43;100.00
30897;BME280;64229;52.246;21.054;2023-07-28T19:45:20;99612.47;;;18.65;100.00
30897;BME280;64229;52.246;21.054;2023-07-28T19:47:46;99619.47;;;18.66;100.00
30897;BME280;64229;52.246;21.054;2023-07-28T19:50:11;99603.31;;;18.57;100.00
30897;BME280;64229;52.246;21.054;2023-07-28T19:52:36;99620.31;;;18.58;100.00
30897;BME280;64229;52.246;21.054;2023-07-28T19:55:02;99618.38;;;18.46;100.00
30897;BME280;64229;52.246;21.054;2023-07-28T19:57:27;99628.69;;;18.65;100.00
30897;BME280;64229;52.246;21.054;2023-07-28T19:59:52;99626.28;;;18.51;100.00
30897;BME280;64229;52.246;21.054;2023-07-28T20:02:17;99619.72;;;18.40;100.00
30897;BME280;64229;52.246;21.054;2023-07-28T20:04:43;99622.91;;;18.54;100.00
30897;BME280;64229;52.246;21.054;2023-07-28T20:07:08;99624.66;;;18.50;100.00
30897;BME280;64229;52.246;21.054;2023-07-28T20:09:34;99617.19;;;18.35;100.00
30897;BME280;64229;52.246;21.054;2023-07-28T20:11:59;99629.69;;;18.39;100.00
30897;BME280;64229;52.246;21.054;2023-07-28T20:14:25;99646.41;;;18.41;100.00
30897;BME280;64229;52.246;21.054;2023-07-28T20:16:50;99638.47;;;18.36;100.00
30897;BME280;64229;52.246;21.054;2023-07-28T20:19:15;99645.72;;;18.44;100.00
30897;BME280;64229;52.246;21.054;2023-07-28T20:21:41;99649.75;;;18.38;100.00
30897;BME280;64229;52.246;21.054;2023-07-28T20:24:06;99641.06;;;18.33;100.00
30897;BME280;64229;52.246;21.054;2023-07-28T20:26:32;99653.31;;;18.30;100.00
30897;BME280;64229;52.246;21.054;2023-07-28T20:28:57;99652.00;;;18.36;100.00
30897;BME280;64229;52.246;21.054;2023-07-28T20:31:22;99643.66;;;18.29;100.00
30897;BME280;64229;52.246;21.054;2023-07-28T20:33:48;99645.00;;;18.35;100.00
30897;BME280;64229;52.246;21.054;2023-07-28T20:36:14;99652.66;;;18.33;100.00
30897;BME280;64229;52.246;21.054;2023-07-28T20:38:40;99647.25;;;18.33;100.00
30897;BME280;64229;52.246;21.054;2023-07-28T20:41:05;99643.94;;;18.28;100.00
30897;BME280;64229;52.246;21.054;2023-07-28T20:43:31;99652.41;;;18.26;100.00
30897;BME280;64229;52.246;21.054;2023-07-28T20:45:57;99654.50;;;18.41;100.00
30897;BME280;64229;52.246;21.054;2023-07-28T20:48:23;99654.25;;;18.34;100.00
30897;BME280;64229;52.246;21.054;2023-07-28T20:50:48;99661.63;;;18.25;100.00
30897;BME280;64229;52.246;21.054;2023-07-28T20:53:15;99661.16;;;18.23;100.00
30897;BME280;64229;52.246;21.054;2023-07-28T20:55:43;99647.16;;;18.09;100.00
30897;BME280;64229;52.246;21.054;2023-07-28T20:58:09;99670.28;;;18.18;100.00
30897;BME280;64229;52.246;21.054;2023-07-28T21:00:35;99677.88;;;18.16;100.00
30897;BME280;64229;52.246;21.054;2023-07-28T21:03:00;99682.72;;;18.32;100.00
30897;BME280;64229;52.246;21.054;2023-07-28T21:05:27;99684.28;;;18.33;100.00
30897;BME280;64229;52.246;21.054;2023-07-28T21:07:52;99665.06;;;18.13;100.00
30897;BME280;64229;52.246;21.054;2023-07-28T21:10:18;99687.31;;;18.10;100.00
30897;BME280;64229;52.246;21.054;2023-07-28T21:12:43;99688.75;;;18.29;100.00
30897;BME280;64229;52.246;21.054;2023-07-28T21:15:09;99692.19;;;18.17;100.00
30897;BME280;64229;52.246;21.054;2023-07-28T21:17:34;99685.88;;;18.13;100.00
30897;BME280;64229;52.246;21.054;2023-07-28T21:20:00;99693.38;;;18.07;100.00
30897;BME280;64229;52.246;21.054;2023-07-28T21:22:25;99697.19;;;18.06;100.00
30897;BME280;64229;52.246;21.054;2023-07-28T21:24:50;99691.19;;;18.01;100.00
30897;BME280;64229;52.246;21.054;2023-07-28T21:27:15;99703.25;;;18.24;100.00
30897;BME280;64229;52.246;21.054;2023-07-28T21:29:41;99688.50;;;18.01;100.00
30897;BME280;64229;52.246;21.054;2023-07-28T21:32:06;99693.91;;;18.01;100.00
30897;BME280;64229;52.246;21.054;2023-07-28T21:34:32;99706.94;;;17.99;100.00
30897;BME280;64229;52.246;21.054;2023-07-28T21:36:57;99699.44;;;18.04;100.00
30897;BME280;64229;52.246;21.054;2023-07-28T21:39:22;99692.00;;;18.01;100.00
30897;BME280;64229;52.246;21.054;2023-07-28T21:41:48;99695.19;;;17.95;100.00
30897;BME280;64229;52.246;21.054;2023-07-28T21:44:14;99706.66;;;17.91;100.00
30897;BME280;64229;52.246;21.054;2023-07-28T21:46:39;99711.06;;;17.96;100.00
30897;BME280;64229;52.246;21.054;2023-07-28T21:49:04;99723.31;;;17.93;100.00
30897;BME280;64229;52.246;21.054;2023-07-28T21:51:30;99716.34;;;17.92;100.00
30897;BME280;64229;52.246;21.054;2023-07-28T21:53:55;99721.50;;;18.06;100.00
30897;BME280;64229;52.246;21.054;2023-07-28T21:56:21;99719.00;;;18.01;100.00
30897;BME280;64229;52.246;21.054;2023-07-28T21:58:46;99725.34;;;17.97;100.00
30897;BME280;64229;52.246;21.054;2023-07-28T22:01:11;99719.50;;;17.95;100.00
30897;BME280;64229;52.246;21.054;2023-07-28T22:03:37;99727.28;;;17.96;100.00
30897;BME280;64229;52.246;21.054;2023-07-28T22:06:06;99711.53;;;17.77;100.00
30897;BME280;64229;52.246;21.054;2023-07-28T22:08:32;99730.69;;;17.84;100.00
30897;BME280;64229;52.246;21.054;2023-07-28T22:10:57;99730.53;;;17.81;100.00
30897;BME280;64229;52.246;21.054;2023-07-28T22:13:22;99723.06;;;17.86;100.00
30897;BME280;64229;52.246;21.054;2023-07-28T22:15:48;99731.53;;;17.76;100.00
30897;BME280;64229;52.246;21.054;2023-07-28T22:18:13;99729.78;;;17.72;100.00
30897;BME280;64229;52.246;21.054;2023-07-28T22:20:40;99731.53;;;17.68;100.00
30897;BME280;64229;52.246;21.054;2023-07-28T22:23:08;99734.41;;;17.62;100.00
30897;BME280;64229;52.246;21.054;2023-07-28T22:25:45;99732.84;;;17.61;100.00
30897;BME280;64229;52.246;21.054;2023-07-28T22:28:12;99735.84;;;17.60;100.00
30897;BME280;64229;52.246;21.054;2023-07-28T22:30:38;99731.59;;;17.59;100.00
30897;BME280;64229;52.246;21.054;2023-07-28T22:33:04;99711.59;;;17.51;100.00
30897;BME280;64229;52.246;21.054;2023-07-28T22:35:29;99736.78;;;17.64;100.00
30897;BME280;64229;52.246;21.054;2023-07-28T22:37:55;99742.50;;;17.62;100.00
30897;BME280;64229;52.246;21.054;2023-07-28T22:40:20;99746.84;;;17.55;100.00
30897;BME280;64229;52.246;21.054;2023-07-28T22:42:45;99743.66;;;17.53;100.00
30897;BME280;64229;52.246;21.054;2023-07-28T22:45:11;99745.91;;;17.51;100.00
30897;BME280;64229;52.246;21.054;2023-07-28T22:47:36;99746.53;;;17.56;100.00
30897;BME280;64229;52.246;21.054;2023-07-28T22:50:01;99743.66;;;17.53;100.00
30897;BME280;64229;52.246;21.054;2023-07-28T22:52:27;99749.84;;;17.53;100.00
30897;BME280;64229;52.246;21.054;2023-07-28T22:54:52;99745.28;;;17.45;100.00
30897;BME280;64229;52.246;21.054;2023-07-28T22:57:18;99724.56;;;17.28;100.00
30897;BME280;64229;52.246;21.054;2023-07-28T22:59:43;99757.34;;;17.48;100.00
30897;BME280;64229;52.246;21.054;2023-07-28T23:02:09;99753.38;;;17.45;100.00
30897;BME280;64229;52.246;21.054;2023-07-28T23:04:34;99756.19;;;17.57;100.00
30897;BME280;64229;52.246;21.054;2023-07-28T23:06:59;99765.41;;;17.56;100.00
30897;BME280;64229;52.246;21.054;2023-07-28T23:09:25;99767.94;;;17.53;100.00
30897;BME280;64229;52.246;21.054;2023-07-28T23:11:50;99768.56;;;17.58;100.00
30897;BME280;64229;52.246;21.054;2023-07-28T23:14:16;99761.25;;;17.59;100.00
30897;BME280;64229;52.246;21.054;2023-07-28T23:16:41;99767.16;;;17.52;100.00
30897;BME280;64229;52.246;21.054;2023-07-28T23:19:07;99778.09;;;17.56;100.00
30897;BME280;64229;52.246;21.054;2023-07-28T23:21:32;99758.00;;;17.45;100.00
30897;BME280;64229;52.246;21.054;2023-07-28T23:23:57;99775.88;;;17.58;100.00
30897;BME280;64229;52.246;21.054;2023-07-28T23:26:23;99765.56;;;17.51;100.00
30897;BME280;64229;52.246;21.054;2023-07-28T23:28:48;99775.53;;;17.59;100.00
30897;BME280;64229;52.246;21.054;2023-07-28T23:31:16;99779.50;;;17.62;100.00
30897;BME280;64229;52.246;21.054;2023-07-28T23:33:42;99767.13;;;17.61;100.00
30897;BME280;64229;52.246;21.054;2023-07-28T23:36:08;99770.94;;;17.60;100.00
30897;BME280;64229;52.246;21.054;2023-07-28T23:38:34;99777.91;;;17.61;100.00
30897;BME280;64229;52.246;21.054;2023-07-28T23:41:00;99775.69;;;17.63;100.00
30897;BME280;64229;52.246;21.054;2023-07-28T23:43:26;99776.63;;;17.67;100.00
30897;BME280;64229;52.246;21.054;2023-07-28T23:45:51;99785.22;;;17.69;100.00
30897;BME280;64229;52.246;21.054;2023-07-28T23:48:18;99788.22;;;17.68;100.00
30897;BME280;64229;52.246;21.054;2023-07-28T23:50:43;99791.25;;;17.66;100.00
30897;BME280;64229;52.246;21.054;2023-07-28T23:53:09;99790.91;;;17.68;100.00
30897;BME280;64229;52.246;21.054;2023-07-28T23:55:34;99795.81;;;17.74;100.00
30897;BME280;64229;52.246;21.054;2023-07-28T23:57:59;99794.41;;;17.68;100.00
